createdAt,value
2022-11-19T00:00:36.388Z,77.24
2022-11-19T00:03:10.804Z,77.31
2022-11-19T00:05:46.100Z,77.21
2022-11-19T00:08:21.421Z,77.30
2022-11-19T00:10:54.287Z,77.14
2022-11-19T00:13:26.269Z,77.12
2022-11-19T00:16:03.643Z,76.73
2022-11-19T00:18:38.076Z,76.57
2022-11-19T00:21:12.689Z,76.55
2022-11-19T00:23:45.668Z,77.03
2022-11-19T00:26:18.681Z,76.95
2022-11-19T00:28:52.112Z,76.84
2022-11-19T00:31:25.745Z,76.35
2022-11-19T00:34:00.082Z,76.56
2022-11-19T00:36:33.234Z,76.83
2022-11-19T00:39:06.511Z,76.78
2022-11-19T00:41:39.659Z,76.59
2022-11-19T00:44:12.623Z,76.45
2022-11-19T00:46:45.483Z,76.44
2022-11-19T00:49:20.052Z,75.83
2022-11-19T00:51:53.375Z,75.69
2022-11-19T00:54:26.468Z,75.80
2022-11-19T00:56:59.352Z,75.51
2022-11-19T00:59:32.672Z,75.51
2022-11-19T01:02:05.519Z,74.55
2022-11-19T01:04:40.003Z,74.74
2022-11-19T01:07:13.056Z,74.42
2022-11-19T01:09:47.414Z,74.55
2022-11-19T01:12:20.285Z,74.22
2022-11-19T01:14:53.358Z,74.52
2022-11-19T01:17:26.217Z,73.96
2022-11-19T01:20:00.628Z,74.32
2022-11-19T01:22:33.506Z,73.85
2022-11-19T01:25:07.219Z,74.35
2022-11-19T01:27:40.075Z,74.62
2022-11-19T01:30:13.818Z,74.66
2022-11-19T01:32:46.796Z,75.07
2022-11-19T01:35:20.949Z,74.80
2022-11-19T01:37:54.189Z,74.92
2022-11-19T01:40:27.441Z,74.79
2022-11-19T01:43:00.446Z,74.73
2022-11-19T01:45:36.635Z,75.24
2022-11-19T01:48:14.611Z,76.08
2022-11-19T01:50:52.856Z,76.39
2022-11-19T01:53:30.601Z,77.08
2022-11-19T01:56:06.021Z,77.46
2022-11-19T01:58:41.715Z,77.44
2022-11-19T02:01:15.792Z,77.56
2022-11-19T02:03:50.224Z,77.76
2022-11-19T02:06:24.499Z,77.51
2022-11-19T02:08:57.489Z,77.74
2022-11-19T02:11:56.393Z,77.69
2022-11-19T02:14:54.512Z,77.76
2022-11-19T02:17:42.409Z,77.90
2022-11-19T02:20:45.493Z,78.07
2022-11-19T02:23:53.243Z,77.69
2022-11-19T02:26:58.279Z,77.59
2022-11-19T02:30:16.586Z,78.05
2022-11-19T02:32:59.250Z,77.69
2022-11-19T02:35:43.344Z,77.40
2022-11-19T02:38:32.372Z,77.88
2022-11-19T02:41:30.465Z,77.20
2022-11-19T02:44:41.333Z,77.45
2022-11-19T02:47:17.527Z,77.56
2022-11-19T02:49:58.181Z,77.56
2022-11-19T02:52:31.535Z,77.57
2022-11-19T02:55:04.973Z,77.57
2022-11-19T02:57:38.403Z,77.79
2022-11-19T03:00:30.439Z,77.35
2022-11-19T03:03:23.619Z,77.04
2022-11-19T03:06:03.276Z,77.09
2022-11-19T03:08:36.559Z,77.46
2022-11-19T03:11:19.381Z,76.48
2022-11-19T03:14:14.801Z,76.48
2022-11-19T03:16:56.128Z,76.09
2022-11-19T03:19:38.847Z,75.99
2022-11-19T03:22:19.675Z,75.53
2022-11-19T03:24:59.882Z,75.84
2022-11-19T03:27:39.782Z,75.45
2022-11-19T03:30:15.392Z,74.87
2022-11-19T03:32:53.684Z,74.58
2022-11-19T03:35:31.095Z,74.94
2022-11-19T03:38:09.547Z,74.77
2022-11-19T03:40:43.894Z,75.20
2022-11-19T03:43:21.927Z,75.49
2022-11-19T03:45:58.290Z,75.65
2022-11-19T03:48:32.254Z,75.58
2022-11-19T03:51:10.600Z,75.94
2022-11-19T03:53:45.510Z,75.71
2022-11-19T03:56:21.932Z,75.82
2022-11-19T03:58:55.614Z,75.83
2022-11-19T04:01:28.482Z,76.13
2022-11-19T04:04:18.782Z,76.27
2022-11-19T04:06:51.888Z,75.88
2022-11-19T04:09:26.250Z,76.33
2022-11-19T04:11:59.194Z,76.48
2022-11-19T04:14:32.152Z,76.64
2022-11-19T04:17:05.002Z,76.93
2022-11-19T04:19:38.285Z,76.54
2022-11-19T04:22:11.230Z,76.32
2022-11-19T04:24:45.934Z,76.32
2022-11-19T04:27:18.766Z,76.50
2022-11-19T04:29:51.637Z,76.88
2022-11-19T04:32:24.879Z,76.37
2022-11-19T04:34:57.708Z,76.35
2022-11-19T04:37:30.586Z,76.63
2022-11-19T04:40:05.677Z,76.58
2022-11-19T04:42:38.499Z,76.44
2022-11-19T04:45:11.937Z,76.67
2022-11-19T04:47:44.815Z,76.60
2022-11-19T04:50:18.098Z,76.87
2022-11-19T04:52:51.670Z,76.54
2022-11-19T04:55:25.974Z,76.47
2022-11-19T04:57:58.736Z,76.58
2022-11-19T05:00:31.608Z,76.31
2022-11-19T05:03:04.796Z,76.57
2022-11-19T05:05:37.856Z,76.15
2022-11-19T05:08:10.665Z,76.08
2022-11-19T05:10:46.395Z,75.92
2022-11-19T05:13:19.505Z,76.17
2022-11-19T05:15:52.782Z,75.78
2022-11-19T05:18:25.835Z,76.37
2022-11-19T05:20:59.089Z,75.54
2022-11-19T05:23:31.958Z,75.43
2022-11-19T05:26:06.506Z,75.01
2022-11-19T05:28:40.232Z,74.25
2022-11-19T05:31:13.486Z,73.65
2022-11-19T05:33:46.269Z,72.52
2022-11-19T05:36:19.164Z,72.38
2022-11-19T05:38:51.941Z,71.53
2022-11-19T05:41:26.232Z,71.19
2022-11-19T05:43:58.975Z,71.43
2022-11-19T05:46:31.899Z,71.37
2022-11-19T05:49:04.839Z,71.60
2022-11-19T05:51:37.644Z,71.86
2022-11-19T05:54:10.873Z,71.95
2022-11-19T05:56:45.758Z,71.98
2022-11-19T05:59:18.833Z,72.55
2022-11-19T06:01:52.035Z,73.07
2022-11-19T06:04:24.862Z,73.33
2022-11-19T06:06:57.852Z,73.53
2022-11-19T06:09:30.706Z,73.49
2022-11-19T06:12:05.510Z,72.79
2022-11-19T06:14:38.364Z,72.94
2022-11-19T06:17:11.345Z,72.98
2022-11-19T06:19:44.136Z,72.60
2022-11-19T06:22:17.042Z,73.00
2022-11-19T06:24:50.010Z,72.51
2022-11-19T06:27:24.245Z,73.08
2022-11-19T06:29:57.450Z,73.08
2022-11-19T06:32:30.458Z,73.91
2022-11-19T06:35:03.352Z,74.42
2022-11-19T06:37:36.661Z,74.79
2022-11-19T06:40:10.576Z,75.78
2022-11-19T06:42:49.808Z,76.39
2022-11-19T06:45:23.901Z,77.17
2022-11-19T06:47:56.884Z,77.02
2022-11-19T06:50:29.911Z,77.75
2022-11-19T06:53:02.964Z,77.48
2022-11-19T06:55:35.886Z,78.07
2022-11-19T06:58:10.422Z,77.94
2022-11-19T07:00:43.317Z,78.24
2022-11-19T07:03:16.651Z,77.82
2022-11-19T07:05:49.732Z,78.16
2022-11-19T07:08:22.943Z,77.93
2022-11-19T07:10:56.607Z,77.88
2022-11-19T07:13:50.898Z,77.79
2022-11-19T07:16:23.776Z,78.04
2022-11-19T07:18:59.009Z,77.94
2022-11-19T07:21:32.911Z,77.52
2022-11-19T07:24:08.521Z,77.58
2022-11-19T07:26:41.311Z,77.39
2022-11-19T07:29:16.481Z,77.23
2022-11-19T07:31:50.672Z,77.39
2022-11-19T07:34:23.542Z,77.26
2022-11-19T07:36:56.823Z,77.37
2022-11-19T07:39:29.718Z,77.24
2022-11-19T07:42:20.234Z,77.58
2022-11-19T07:44:55.096Z,77.37
2022-11-19T07:47:28.072Z,77.41
2022-11-19T07:50:01.169Z,77.48
2022-11-19T07:52:34.125Z,77.09
2022-11-19T07:55:07.953Z,76.37
2022-11-19T07:57:40.782Z,76.54
2022-11-19T08:00:16.648Z,76.38
2022-11-19T08:02:50.030Z,76.21
2022-11-19T08:05:22.992Z,76.62
2022-11-19T08:07:56.014Z,77.45
2022-11-19T08:10:31.893Z,77.54
2022-11-19T08:13:04.985Z,77.15
2022-11-19T08:15:39.223Z,75.87
2022-11-19T08:18:15.737Z,75.62
2022-11-19T08:20:48.849Z,75.17
2022-11-19T08:23:22.953Z,74.83
2022-11-19T08:25:55.826Z,75.10
2022-11-19T08:28:29.039Z,75.37
2022-11-19T08:31:09.773Z,75.69
2022-11-19T08:33:42.632Z,75.85
2022-11-19T08:36:15.443Z,76.38
2022-11-19T08:38:48.411Z,76.24
2022-11-19T08:41:38.542Z,76.58
2022-11-19T08:44:11.477Z,77.18
2022-11-19T08:46:45.901Z,78.76
2022-11-19T08:49:18.868Z,78.87
2022-11-19T08:51:51.710Z,79.72
2022-11-19T08:54:24.900Z,81.10
2022-11-19T08:56:57.840Z,80.91
2022-11-19T08:59:30.665Z,81.51
2022-11-19T09:02:04.886Z,80.94
2022-11-19T09:04:37.992Z,80.62
2022-11-19T09:07:10.868Z,79.71
2022-11-19T09:09:43.785Z,79.35
2022-11-19T09:12:17.428Z,78.41
2022-11-19T09:14:52.121Z,77.79
2022-11-19T09:17:26.434Z,76.98
2022-11-19T09:19:59.266Z,76.89
2022-11-19T09:22:33.337Z,76.76
2022-11-19T09:25:09.061Z,76.50
2022-11-19T09:27:41.967Z,76.74
2022-11-19T09:30:15.394Z,77.38
2022-11-19T09:32:49.677Z,77.55
2022-11-19T09:35:22.913Z,78.50
2022-11-19T09:37:55.787Z,77.94
2022-11-19T09:40:28.711Z,77.58
2022-11-19T09:43:14.074Z,76.90
2022-11-19T09:45:59.994Z,75.68
2022-11-19T09:48:38.307Z,75.09
2022-11-19T09:51:14.082Z,73.13
2022-11-19T09:53:52.221Z,71.69
2022-11-19T09:56:28.986Z,72.44
2022-11-19T09:59:08.700Z,72.70
2022-11-19T10:01:42.026Z,72.40
2022-11-19T10:04:18.779Z,72.16
2022-11-19T10:07:01.129Z,73.28
2022-11-19T10:09:45.991Z,73.77
2022-11-19T10:12:47.435Z,74.27
2022-11-19T10:15:25.509Z,74.08
2022-11-19T10:18:10.189Z,72.78
2022-11-19T10:21:03.859Z,72.88
2022-11-19T10:23:48.086Z,72.39
2022-11-19T10:26:28.092Z,71.88
2022-11-19T10:29:03.027Z,71.55
2022-11-19T10:31:38.567Z,71.12
2022-11-19T10:34:18.769Z,70.76
2022-11-19T10:36:58.981Z,70.26
2022-11-19T10:39:36.616Z,70.37
2022-11-19T10:42:19.229Z,70.32
2022-11-19T10:44:56.307Z,71.26
2022-11-19T10:47:34.684Z,71.15
2022-11-19T10:50:11.430Z,70.17
2022-11-19T10:52:50.473Z,69.64
2022-11-19T10:55:27.350Z,69.99
2022-11-19T10:58:09.379Z,69.67
2022-11-19T11:00:43.918Z,69.28
2022-11-19T11:03:22.743Z,69.52
2022-11-19T11:05:59.078Z,69.28
2022-11-19T11:08:34.044Z,70.34
2022-11-19T11:11:06.883Z,69.79
2022-11-19T11:13:59.570Z,69.70
2022-11-19T11:16:45.513Z,70.46
2022-11-19T11:19:21.490Z,69.71
2022-11-19T11:21:56.008Z,70.08
2022-11-19T11:24:36.000Z,69.75
2022-11-19T11:27:22.620Z,69.74
2022-11-19T11:30:07.235Z,70.20
2022-11-19T11:32:41.337Z,70.88
2022-11-19T11:35:39.078Z,70.42
2022-11-19T11:38:11.970Z,71.50
2022-11-19T11:44:03.480Z,71.21
2022-11-19T11:46:41.151Z,71.01
2022-11-19T11:49:24.238Z,71.51
2022-11-19T11:52:21.407Z,71.23
2022-11-19T11:54:57.262Z,72.32
2022-11-19T11:57:33.836Z,72.26
2022-11-19T12:00:30.130Z,72.80
2022-11-19T12:03:06.740Z,72.72
2022-11-19T12:06:01.280Z,72.38
2022-11-19T12:08:46.412Z,73.05
2022-11-19T12:11:25.916Z,73.72
2022-11-19T12:14:10.702Z,74.66
2022-11-19T12:16:51.447Z,74.00
2022-11-19T12:19:59.860Z,73.49
2022-11-19T12:22:50.036Z,73.31
2022-11-19T12:25:32.163Z,73.11
2022-11-19T12:28:20.237Z,73.38
2022-11-19T12:31:05.903Z,72.85
2022-11-19T12:33:57.495Z,72.63
2022-11-19T12:36:39.904Z,72.61
2022-11-19T12:39:27.024Z,72.29
2022-11-19T12:42:19.951Z,70.24
2022-11-19T12:45:02.316Z,69.17
2022-11-19T12:47:53.828Z,68.74
2022-11-19T12:50:33.852Z,67.27
2022-11-19T12:53:16.529Z,67.55
2022-11-19T12:56:03.905Z,67.41
2022-11-19T12:58:45.351Z,67.43
2022-11-19T13:01:24.768Z,67.22
2022-11-19T13:04:05.541Z,67.33
2022-11-19T13:06:47.305Z,68.03
2022-11-19T13:09:36.722Z,68.41
2022-11-19T13:12:15.441Z,68.80
2022-11-19T13:14:55.265Z,69.20
2022-11-19T13:17:32.887Z,69.42
2022-11-19T13:20:14.494Z,68.78
2022-11-19T13:22:49.100Z,69.83
2022-11-19T13:25:26.178Z,69.53
2022-11-19T13:28:04.233Z,69.23
2022-11-19T13:30:37.179Z,67.74
2022-11-19T13:33:17.164Z,66.40
2022-11-19T13:35:55.880Z,67.03
2022-11-19T13:38:37.902Z,65.95
2022-11-19T13:41:15.666Z,66.04
2022-11-19T13:44:08.214Z,65.60
2022-11-19T13:46:45.109Z,65.43
2022-11-19T13:49:23.486Z,65.39
2022-11-19T13:52:01.055Z,65.86
2022-11-19T13:54:36.620Z,65.67
2022-11-19T13:57:23.641Z,66.07
2022-11-19T14:00:25.286Z,65.82
2022-11-19T14:03:28.446Z,66.97
2022-11-19T14:06:24.642Z,66.81
2022-11-19T14:09:07.232Z,66.57
2022-11-19T14:12:04.091Z,66.53
2022-11-19T14:15:06.469Z,66.79
2022-11-19T14:18:06.524Z,67.38
2022-11-19T14:20:58.799Z,67.96
2022-11-19T14:24:06.032Z,67.83
2022-11-19T14:27:01.683Z,68.55
2022-11-19T14:29:56.984Z,67.84
2022-11-19T14:32:36.774Z,67.69
2022-11-19T14:35:34.213Z,68.10
2022-11-19T14:38:39.465Z,68.08
2022-11-19T14:41:33.789Z,67.67
2022-11-19T14:44:10.739Z,67.89
2022-11-19T14:46:46.541Z,68.26
2022-11-19T14:49:34.791Z,67.33
2022-11-19T14:52:21.226Z,67.40
2022-11-19T14:54:57.406Z,67.48
2022-11-19T14:57:33.295Z,68.32
2022-11-19T15:00:26.406Z,68.61
2022-11-19T15:02:59.808Z,68.73
2022-11-19T15:05:36.272Z,69.03
2022-11-19T15:08:44.170Z,68.79
2022-11-19T15:11:18.131Z,69.34
2022-11-19T15:14:38.606Z,69.18
2022-11-19T15:17:12.637Z,69.25
2022-11-19T15:19:50.821Z,69.18
2022-11-19T15:22:51.234Z,68.50
2022-11-19T15:25:33.859Z,68.40
2022-11-19T15:28:20.434Z,68.55
2022-11-19T15:31:27.149Z,68.53
2022-11-19T15:34:24.614Z,68.83
2022-11-19T15:37:01.685Z,69.10
2022-11-19T15:39:39.472Z,68.16
2022-11-19T15:42:18.057Z,68.89
2022-11-19T15:44:56.200Z,68.80
2022-11-19T15:47:38.401Z,68.73
2022-11-19T15:50:18.283Z,68.55
2022-11-19T15:53:01.371Z,68.31
2022-11-19T15:55:34.554Z,68.78
2022-11-19T15:58:19.601Z,68.77
2022-11-19T16:00:53.970Z,68.54
2022-11-19T16:03:26.972Z,68.96
2022-11-19T16:06:08.504Z,68.48
2022-11-19T16:08:41.441Z,69.33
2022-11-19T16:11:35.994Z,69.56
2022-11-19T16:14:39.929Z,68.88
2022-11-19T16:17:34.946Z,69.77
2022-11-19T16:20:21.479Z,68.49
2022-11-19T16:22:58.684Z,68.87
2022-11-19T16:25:35.106Z,68.80
2022-11-19T16:28:11.761Z,69.08
2022-11-19T16:30:49.559Z,69.08
2022-11-19T16:33:26.124Z,69.36
2022-11-19T16:36:13.183Z,69.00
2022-11-19T16:38:49.103Z,69.85
2022-11-19T16:41:42.771Z,69.89
2022-11-19T16:44:18.010Z,70.68
2022-11-19T16:46:53.330Z,70.91
2022-11-19T16:49:34.565Z,70.75
2022-11-19T16:52:08.243Z,71.12
2022-11-19T16:54:47.433Z,71.41
2022-11-19T16:57:23.270Z,70.86
2022-11-19T16:59:58.937Z,71.41
2022-11-19T17:02:40.232Z,71.51
2022-11-19T17:05:16.431Z,71.74
2022-11-19T17:07:51.025Z,71.34
2022-11-19T17:10:30.655Z,71.45
2022-11-19T17:13:24.393Z,71.63
2022-11-19T17:16:17.371Z,72.31
2022-11-19T17:18:52.180Z,71.19
2022-11-19T17:21:28.430Z,71.63
2022-11-19T17:24:01.313Z,71.53
2022-11-19T17:26:34.452Z,71.52
2022-11-19T17:29:12.361Z,71.97
2022-11-19T17:31:48.288Z,71.48
2022-11-19T17:34:31.122Z,71.87
2022-11-19T17:37:03.903Z,71.63
2022-11-19T17:39:36.683Z,71.37
2022-11-19T17:42:28.285Z,71.13
2022-11-19T17:45:06.036Z,71.94
2022-11-19T17:47:42.095Z,71.44
2022-11-19T17:50:16.453Z,71.22
2022-11-19T17:52:49.353Z,71.83
2022-11-19T17:55:23.454Z,71.47
2022-11-19T17:57:56.250Z,71.36
2022-11-19T18:00:29.045Z,71.56
2022-11-19T18:03:03.244Z,72.12
2022-11-19T18:05:39.510Z,71.55
2022-11-19T18:08:12.370Z,71.97
2022-11-19T18:10:47.586Z,71.37
2022-11-19T18:13:24.003Z,71.03
2022-11-19T18:15:57.765Z,71.44
2022-11-19T18:18:30.650Z,71.29
2022-11-19T18:21:05.220Z,70.73
2022-11-19T18:23:38.230Z,71.41
2022-11-19T18:26:11.743Z,71.38
2022-11-19T18:28:48.595Z,71.00
2022-11-19T18:31:24.182Z,70.78
2022-11-19T18:33:57.919Z,71.05
2022-11-19T18:36:32.136Z,70.50
2022-11-19T18:39:05.110Z,70.84
2022-11-19T18:41:38.170Z,71.47
2022-11-19T18:44:32.045Z,71.25
2022-11-19T18:47:09.986Z,70.82
2022-11-19T18:49:43.218Z,71.00
2022-11-19T18:52:17.361Z,71.27
2022-11-19T18:54:50.399Z,71.08
2022-11-19T18:57:23.277Z,70.77
2022-11-19T18:59:56.111Z,71.23
2022-11-19T19:02:29.028Z,71.41
2022-11-19T19:05:01.787Z,71.64
2022-11-19T19:07:36.114Z,71.33
2022-11-19T19:10:09.473Z,71.53
2022-11-19T19:12:42.607Z,71.32
2022-11-19T19:15:15.547Z,71.55
2022-11-19T19:17:48.381Z,71.80
2022-11-19T19:20:21.711Z,71.31
2022-11-19T19:22:55.953Z,71.54
2022-11-19T19:25:28.809Z,72.16
2022-11-19T19:28:01.663Z,72.36
2022-11-19T19:30:34.481Z,71.77
2022-11-19T19:33:07.314Z,72.33
2022-11-19T19:35:40.142Z,72.04
2022-11-19T19:38:14.340Z,72.51
2022-11-19T19:40:47.246Z,72.17
2022-11-19T19:43:20.089Z,71.72
2022-11-19T19:45:52.925Z,71.55
2022-11-19T19:48:25.792Z,72.02
2022-11-19T19:50:58.732Z,71.39
2022-11-19T19:53:32.903Z,71.47
2022-11-19T19:56:07.102Z,72.00
2022-11-19T19:58:40.554Z,72.20
2022-11-19T20:01:15.177Z,72.11
2022-11-19T20:03:54.123Z,72.04
2022-11-19T20:06:27.481Z,71.55
2022-11-19T20:09:06.909Z,71.28
2022-11-19T20:11:41.239Z,71.27
2022-11-19T20:14:14.043Z,71.16
2022-11-19T20:16:46.930Z,71.24
2022-11-19T20:19:19.743Z,70.68
2022-11-19T20:21:52.569Z,70.94
2022-11-19T20:24:26.725Z,71.01
2022-11-19T20:26:59.532Z,70.78
2022-11-19T20:29:32.330Z,70.62
2022-11-19T20:32:05.447Z,70.48
2022-11-19T20:34:38.260Z,70.80
2022-11-19T20:37:11.763Z,70.18
2022-11-19T20:39:46.007Z,70.92
2022-11-19T20:42:36.556Z,70.23
2022-11-19T20:45:09.855Z,69.95
2022-11-19T20:47:42.785Z,70.12
2022-11-19T20:50:15.989Z,70.46
2022-11-19T20:52:48.783Z,70.60
2022-11-19T20:55:22.910Z,70.26
2022-11-19T20:57:56.801Z,70.57
2022-11-19T21:00:29.641Z,70.71
2022-11-19T21:03:02.451Z,70.49
2022-11-19T21:05:35.421Z,70.59
2022-11-19T21:08:08.214Z,70.47
2022-11-19T21:10:42.950Z,70.42
2022-11-19T21:13:15.857Z,70.18
2022-11-19T21:15:48.738Z,69.77
2022-11-19T21:18:24.258Z,70.01
2022-11-19T21:21:01.695Z,69.77
2022-11-19T21:23:35.138Z,69.64
2022-11-19T21:26:12.182Z,69.76
2022-11-19T21:28:46.802Z,69.57
2022-11-19T21:31:21.422Z,69.77
2022-11-19T21:33:54.283Z,69.55
2022-11-19T21:36:27.190Z,69.50
2022-11-19T21:39:00.055Z,69.55
2022-11-19T21:41:34.743Z,69.45
2022-11-19T21:44:08.059Z,69.60
2022-11-19T21:46:40.929Z,69.85
2022-11-19T21:49:13.844Z,69.91
2022-11-19T21:51:46.630Z,69.93
2022-11-19T21:54:19.993Z,69.90
2022-11-19T21:56:54.264Z,69.83
2022-11-19T21:59:27.549Z,69.65
2022-11-19T22:02:00.326Z,69.68
2022-11-19T22:04:33.155Z,69.55
2022-11-19T22:07:07.195Z,70.19
2022-11-19T22:09:40.144Z,70.31
2022-11-19T22:12:14.556Z,70.74
2022-11-19T22:14:47.508Z,70.64
2022-11-19T22:17:20.334Z,71.47
2022-11-19T22:19:53.240Z,71.48
2022-11-19T22:22:26.170Z,71.39
2022-11-19T22:24:59.575Z,71.56
2022-11-19T22:27:33.938Z,71.92
2022-11-19T22:30:08.106Z,71.83
2022-11-19T22:32:40.942Z,71.29
2022-11-19T22:35:13.994Z,70.83
2022-11-19T22:37:46.822Z,70.73
2022-11-19T22:40:19.821Z,70.23
2022-11-19T22:42:54.169Z,70.08
2022-11-19T22:45:27.024Z,70.18
2022-11-19T22:47:59.910Z,70.06
2022-11-19T22:50:32.970Z,70.12
2022-11-19T22:53:05.841Z,69.89
2022-11-19T22:55:39.276Z,69.76
2022-11-19T22:58:13.645Z,69.86
2022-11-19T23:00:48.866Z,69.71
2022-11-19T23:03:21.789Z,69.74
2022-11-19T23:05:56.297Z,70.53
2022-11-19T23:08:29.110Z,70.37
2022-11-19T23:11:04.016Z,70.56
2022-11-19T23:13:39.881Z,70.32
2022-11-19T23:16:15.554Z,70.15
2022-11-19T23:18:50.473Z,70.49
2022-11-19T23:21:25.782Z,70.34
2022-11-19T23:23:59.887Z,70.22
2022-11-19T23:26:34.052Z,70.59
2022-11-19T23:29:09.190Z,70.51
2022-11-19T23:31:42.100Z,70.60
2022-11-19T23:34:14.970Z,71.31
2022-11-19T23:36:47.762Z,71.48
2022-11-19T23:39:20.642Z,71.49
2022-11-19T23:41:53.924Z,71.67
2022-11-19T23:44:28.338Z,71.57
2022-11-19T23:47:01.299Z,71.48
2022-11-19T23:49:34.098Z,71.43
2022-11-19T23:52:07.058Z,71.40
2022-11-19T23:54:39.817Z,71.00
2022-11-19T23:57:12.655Z,71.05
2022-11-19T23:59:46.860Z,71.28
